Terminal Aerodrome Forecast
Issued by NWS

Current Version | Previous Version | Graphics & Text | Print | Product List | Glossary On
Versions: 1 2 3 4 5 6 7 8 9 10 11 12 13 14 15 16 17 18 19 20 21
000
FTUS41 KILN 241400 AAA
TAFLUK
TAF AMD
KLUK 241458Z 2415/2512 20005KT P6SM SCT250
     FM241900 22012G20KT P6SM SCT030
     FM250000 25008KT P6SM OVC030=

USA.gov is the U.S. government's official web portal to all federal, state and local government web resources and services.